createdAt,value
2018-09-22T00:01:30.854Z,65.50
2018-09-22T00:03:58.370Z,64.90
2018-09-22T00:06:26.009Z,64.50
2018-09-22T00:08:53.605Z,64.60
2018-09-22T00:11:21.190Z,64.10
2018-09-22T00:13:48.745Z,64.60
2018-09-22T00:16:16.433Z,64.20
2018-09-22T00:18:43.966Z,64.80
2018-09-22T00:21:11.574Z,64.90
2018-09-22T00:23:39.164Z,65.10
2018-09-22T00:26:06.858Z,65.30
2018-09-22T00:28:34.447Z,65.30
2018-09-22T00:31:01.999Z,65.90
2018-09-22T00:33:29.624Z,65.60
2018-09-22T00:35:57.145Z,65.10
2018-09-22T00:38:24.757Z,64.70
2018-09-22T00:40:52.385Z,64.30
2018-09-22T00:43:19.994Z,63.80
2018-09-22T00:45:47.510Z,63.90
2018-09-22T00:48:15.074Z,64.60
2018-09-22T00:50:42.581Z,64.10
2018-09-22T00:53:10.150Z,64.60
2018-09-22T00:55:37.673Z,65.10
2018-09-22T00:58:05.305Z,65.00
2018-09-22T01:00:32.875Z,65.50
2018-09-22T01:03:00.374Z,66.00
2018-09-22T01:05:28.032Z,65.80
2018-09-22T01:07:55.533Z,65.90
2018-09-22T01:10:23.099Z,66.30
2018-09-22T01:12:50.638Z,66.50
2018-09-22T01:15:18.249Z,66.60
2018-09-22T01:17:45.722Z,66.70
2018-09-22T01:20:13.321Z,66.70
2018-09-22T01:22:40.828Z,66.90
2018-09-22T01:25:08.455Z,66.70
2018-09-22T01:27:35.986Z,67.10
2018-09-22T01:30:03.680Z,67.40
2018-09-22T01:32:31.244Z,66.70
2018-09-22T01:34:58.802Z,66.50
2018-09-22T01:37:26.282Z,67.30
2018-09-22T01:39:53.904Z,67.10
2018-09-22T01:42:21.462Z,67.40
2018-09-22T01:44:49.062Z,67.00
2018-09-22T01:47:16.612Z,67.50
2018-09-22T01:49:44.172Z,67.60
2018-09-22T01:52:11.709Z,67.90
2018-09-22T01:54:39.304Z,67.80
2018-09-22T01:57:06.815Z,67.70
2018-09-22T01:59:34.319Z,67.20
2018-09-22T02:02:02.138Z,67.40
2018-09-22T02:04:29.657Z,67.40
2018-09-22T02:06:57.271Z,67.20
2018-09-22T02:09:24.765Z,67.20
2018-09-22T02:11:52.342Z,67.10
2018-09-22T02:14:20.038Z,66.70
2018-09-22T02:16:47.637Z,66.80
2018-09-22T02:19:15.181Z,66.30
2018-09-22T02:21:42.666Z,66.60
2018-09-22T02:24:10.230Z,66.00
2018-09-22T02:26:37.824Z,66.10
2018-09-22T02:29:05.418Z,65.00
2018-09-22T02:31:32.996Z,65.70
2018-09-22T02:34:01.042Z,65.40
2018-09-22T02:36:28.638Z,64.90
2018-09-22T02:38:56.157Z,65.00
2018-09-22T02:41:23.653Z,65.30
2018-09-22T02:43:52.201Z,65.80
2018-09-22T02:46:19.714Z,65.80
2018-09-22T02:48:47.295Z,65.70
2018-09-22T02:51:14.780Z,64.90
2018-09-22T02:53:42.367Z,65.90
2018-09-22T02:56:09.867Z,65.90
2018-09-22T02:58:37.436Z,65.50
2018-09-22T03:01:05.014Z,65.10
2018-09-22T03:03:32.579Z,65.30
2018-09-22T03:06:00.119Z,64.80
2018-09-22T03:08:27.699Z,64.70
2018-09-22T03:10:55.194Z,64.60
2018-09-22T03:13:22.742Z,65.00
2018-09-22T03:15:50.218Z,64.60
2018-09-22T03:18:17.675Z,64.20
2018-09-22T03:20:45.254Z,63.80
2018-09-22T03:23:12.745Z,64.10
2018-09-22T03:25:40.346Z,64.10
2018-09-22T03:28:07.841Z,63.80
2018-09-22T03:30:35.510Z,63.90
2018-09-22T03:33:03.037Z,63.70
2018-09-22T03:35:30.610Z,63.90
2018-09-22T03:37:58.089Z,63.90
2018-09-22T03:40:25.654Z,63.70
2018-09-22T03:42:53.173Z,63.80
2018-09-22T03:45:20.657Z,63.80
2018-09-22T03:47:48.254Z,63.40
2018-09-22T03:50:15.738Z,63.20
2018-09-22T03:52:43.345Z,63.20
2018-09-22T03:55:10.844Z,62.40
2018-09-22T03:57:38.407Z,63.00
2018-09-22T04:00:07.054Z,62.60
2018-09-22T04:02:34.629Z,62.50
2018-09-22T04:05:02.193Z,62.60
2018-09-22T04:07:29.788Z,62.70
2018-09-22T04:09:57.305Z,62.90
2018-09-22T04:12:24.875Z,63.50
2018-09-22T04:14:52.386Z,64.10
2018-09-22T04:17:19.955Z,64.40
2018-09-22T04:19:47.457Z,64.40
2018-09-22T04:22:15.030Z,64.80
2018-09-22T04:24:42.504Z,64.90
2018-09-22T04:27:10.083Z,65.70
2018-09-22T04:29:37.589Z,65.70
2018-09-22T04:32:05.208Z,66.00
2018-09-22T04:34:32.737Z,66.20
2018-09-22T04:37:00.263Z,66.30
2018-09-22T04:39:27.767Z,66.00
2018-09-22T04:41:55.490Z,66.70
2018-09-22T04:44:23.077Z,66.10
2018-09-22T04:46:50.686Z,66.50
2018-09-22T04:49:18.230Z,66.10
2018-09-22T04:51:45.717Z,66.60
2018-09-22T04:54:13.278Z,66.30
2018-09-22T04:56:40.830Z,66.80
2018-09-22T04:59:08.381Z,66.90
2018-09-22T05:01:35.927Z,67.00
2018-09-22T05:04:03.526Z,67.20
2018-09-22T05:06:31.110Z,67.20
2018-09-22T05:08:58.713Z,68.30
2018-09-22T05:11:26.342Z,68.20
2018-09-22T05:13:53.869Z,68.50
2018-09-22T05:16:21.418Z,68.70
2018-09-22T05:18:48.964Z,68.80
2018-09-22T05:21:16.554Z,68.50
2018-09-22T05:23:44.046Z,68.60
2018-09-22T05:26:11.637Z,68.70
2018-09-22T05:28:39.226Z,68.60
2018-09-22T05:31:06.799Z,68.50
2018-09-22T05:33:34.392Z,68.90
2018-09-22T05:36:02.163Z,68.70
2018-09-22T05:38:29.671Z,68.50
2018-09-22T05:40:57.249Z,68.40
2018-09-22T05:43:24.745Z,68.70
2018-09-22T05:45:52.328Z,68.50
2018-09-22T05:48:19.936Z,68.40
2018-09-22T05:50:47.542Z,68.20
2018-09-22T05:53:15.115Z,68.10
2018-09-22T05:55:42.869Z,68.70
2018-09-22T05:58:10.489Z,69.20
2018-09-22T06:00:39.149Z,69.70
2018-09-22T06:03:08.100Z,69.80
2018-09-22T06:05:35.894Z,70.50
2018-09-22T06:08:03.434Z,70.80
2018-09-22T06:10:31.135Z,71.20
2018-09-22T06:12:58.722Z,71.50
2018-09-22T06:15:26.290Z,71.60
2018-09-22T06:17:53.914Z,71.90
2018-09-22T06:20:21.787Z,72.00
2018-09-22T06:22:49.426Z,71.90
2018-09-22T06:25:17.301Z,72.60
2018-09-22T06:27:44.961Z,72.70
2018-09-22T06:30:12.566Z,73.20
2018-09-22T06:32:40.139Z,73.20
2018-09-22T06:35:07.763Z,73.00
2018-09-22T06:37:35.385Z,72.60
2018-09-22T06:40:03.145Z,72.30
2018-09-22T06:42:30.666Z,72.60
2018-09-22T06:44:58.281Z,71.20
2018-09-22T06:47:25.829Z,71.90
2018-09-22T06:49:53.616Z,72.20
2018-09-22T06:52:21.974Z,71.90
2018-09-22T06:54:54.696Z,71.90
2018-09-22T06:57:22.190Z,71.90
2018-09-22T06:59:49.790Z,72.40
2018-09-22T07:02:17.301Z,72.30
2018-09-22T07:04:44.887Z,72.60
2018-09-22T07:07:14.835Z,72.00
2018-09-22T07:09:42.545Z,71.70
2018-09-22T07:12:10.227Z,72.70
2018-09-22T07:14:37.930Z,72.10
2018-09-22T07:17:06.143Z,70.80
2018-09-22T07:19:34.604Z,71.00
2018-09-22T07:22:07.768Z,69.70
2018-09-22T07:24:35.677Z,68.70
2018-09-22T07:27:03.197Z,67.90
2018-09-22T07:29:33.203Z,68.20
2018-09-22T07:32:00.927Z,66.80
2018-09-22T07:34:28.596Z,66.70
2018-09-22T07:36:57.241Z,65.50
2018-09-22T07:39:27.572Z,65.60
2018-09-22T07:42:03.020Z,65.30
2018-09-22T07:44:31.506Z,64.60
2018-09-22T07:47:02.190Z,64.10
2018-09-22T07:49:30.956Z,63.90
2018-09-22T07:51:59.013Z,63.00
2018-09-22T07:54:26.940Z,64.60
2018-09-22T07:56:54.643Z,65.20
2018-09-22T07:59:22.414Z,62.80
2018-09-22T08:01:50.250Z,62.00
2018-09-22T08:04:21.655Z,62.40
2018-09-22T08:06:49.424Z,62.00
2018-09-22T08:09:16.952Z,63.20
2018-09-22T08:11:44.757Z,62.80
2018-09-22T08:14:12.338Z,61.90
2018-09-22T08:16:39.834Z,59.90
2018-09-22T08:19:07.438Z,61.10
2018-09-22T08:21:35.014Z,60.20
2018-09-22T08:24:02.662Z,59.90
2018-09-22T08:26:30.253Z,58.90
2018-09-22T08:28:57.886Z,59.90
2018-09-22T08:31:25.464Z,59.30
2018-09-22T08:33:53.128Z,59.00
2018-09-22T08:36:20.924Z,59.30
2018-09-22T08:38:48.405Z,57.70
2018-09-22T08:41:15.928Z,57.10
2018-09-22T08:43:43.582Z,57.10
2018-09-22T08:46:11.196Z,57.10
2018-09-22T08:48:38.813Z,57.90
2018-09-22T08:51:06.568Z,58.50
2018-09-22T08:53:34.249Z,56.90
2018-09-22T08:56:02.088Z,57.20
2018-09-22T08:58:29.695Z,56.10
2018-09-22T09:00:57.486Z,56.00
2018-09-22T09:03:25.115Z,56.60
2018-09-22T09:05:52.846Z,55.00
2018-09-22T09:08:20.316Z,54.90
2018-09-22T09:10:48.007Z,55.50
2018-09-22T09:13:15.545Z,56.40
2018-09-22T09:15:43.219Z,54.60
2018-09-22T09:18:10.811Z,53.80
2018-09-22T09:20:38.535Z,54.20
2018-09-22T09:23:06.219Z,54.70
2018-09-22T09:25:33.831Z,52.60
2018-09-22T09:28:01.440Z,53.10
2018-09-22T09:30:29.115Z,52.20
2018-09-22T09:32:56.705Z,52.80
2018-09-22T09:35:24.253Z,52.00
2018-09-22T09:37:51.899Z,52.00
2018-09-22T09:40:19.703Z,52.70
2018-09-22T09:42:47.303Z,54.10
2018-09-22T09:45:14.884Z,54.30
2018-09-22T09:47:42.490Z,53.30
2018-09-22T09:50:10.018Z,51.90
2018-09-22T09:52:37.633Z,52.10
2018-09-22T09:55:05.282Z,53.60
2018-09-22T09:57:33.686Z,53.30
2018-09-22T10:00:01.594Z,52.70
2018-09-22T10:02:29.220Z,52.90
2018-09-22T10:04:56.729Z,51.70
2018-09-22T10:07:24.367Z,52.90
2018-09-22T10:09:51.938Z,50.90
2018-09-22T10:12:19.545Z,50.80
2018-09-22T10:14:47.087Z,52.50
2018-09-22T10:17:14.694Z,53.00
2018-09-22T10:19:42.244Z,51.00
2018-09-22T10:22:09.891Z,50.70
2018-09-22T10:24:37.461Z,50.40
2018-09-22T10:27:05.023Z,53.50
2018-09-22T10:29:32.636Z,52.10
2018-09-22T10:32:00.168Z,50.80
2018-09-22T10:34:27.835Z,50.60
2018-09-22T10:36:55.359Z,50.50
2018-09-22T10:39:22.999Z,49.50
2018-09-22T10:41:50.525Z,50.80
2018-09-22T10:44:18.118Z,50.60
2018-09-22T10:46:45.805Z,48.70
2018-09-22T10:49:13.443Z,49.40
2018-09-22T10:51:40.961Z,49.60
2018-09-22T10:54:08.718Z,50.20
2018-09-22T10:56:36.359Z,50.20
2018-09-22T10:59:04.046Z,48.80
2018-09-22T11:01:31.590Z,48.70
2018-09-22T11:03:59.256Z,49.10
2018-09-22T11:06:26.896Z,48.60
2018-09-22T11:08:54.494Z,48.80
2018-09-22T11:11:22.044Z,47.70
2018-09-22T11:13:49.767Z,47.50
2018-09-22T11:16:17.395Z,47.90
2018-09-22T11:18:45.074Z,49.10
2018-09-22T11:21:12.658Z,48.20
2018-09-22T11:23:40.228Z,48.30
2018-09-22T11:26:07.840Z,47.50
2018-09-22T11:28:35.463Z,47.70
2018-09-22T11:31:03.002Z,45.70
2018-09-22T11:33:30.573Z,47.20
2018-09-22T11:35:58.181Z,47.20
2018-09-22T11:38:25.834Z,45.40
2018-09-22T11:40:53.316Z,46.70
2018-09-22T11:43:20.855Z,46.80
2018-09-22T11:45:48.498Z,47.40
2018-09-22T11:48:16.043Z,46.50
2018-09-22T11:50:43.648Z,47.40
2018-09-22T11:53:11.210Z,47.50
2018-09-22T11:55:38.878Z,47.60
2018-09-22T11:58:06.508Z,47.00
2018-09-22T12:00:34.012Z,46.30
2018-09-22T12:03:01.619Z,47.00
2018-09-22T12:05:29.225Z,47.60
2018-09-22T12:07:56.793Z,46.60
2018-09-22T12:10:24.348Z,46.90
2018-09-22T12:12:52.053Z,46.70
2018-09-22T12:15:19.631Z,46.00
2018-09-22T12:17:47.171Z,46.10
2018-09-22T12:20:14.849Z,45.50
2018-09-22T12:22:42.438Z,47.20
2018-09-22T12:25:10.050Z,47.70
2018-09-22T12:27:37.590Z,45.00
2018-09-22T12:30:05.511Z,46.80
2018-09-22T12:32:33.036Z,47.00
2018-09-22T12:35:01.074Z,47.00
2018-09-22T12:37:28.751Z,47.30
2018-09-22T12:39:59.015Z,47.70
2018-09-22T12:42:26.549Z,47.90
2018-09-22T12:44:54.229Z,48.40
2018-09-22T12:47:21.793Z,48.50
2018-09-22T12:49:49.407Z,48.20
2018-09-22T12:52:16.933Z,46.70
2018-09-22T12:54:44.588Z,46.10
2018-09-22T12:57:12.160Z,46.80
2018-09-22T12:59:39.850Z,46.30
2018-09-22T13:02:07.380Z,46.30
2018-09-22T13:04:34.962Z,46.00
2018-09-22T13:07:02.787Z,45.10
2018-09-22T13:09:30.286Z,46.20
2018-09-22T13:11:57.880Z,46.50
2018-09-22T13:14:25.400Z,46.10
2018-09-22T13:16:53.119Z,45.70
2018-09-22T13:19:20.695Z,46.70
2018-09-22T13:21:48.355Z,45.70
2018-09-22T13:24:15.879Z,45.80
2018-09-22T13:26:43.498Z,46.20
2018-09-22T13:29:11.056Z,45.80
2018-09-22T13:31:38.690Z,42.00
2018-09-22T13:34:06.327Z,41.20
2018-09-22T13:36:33.926Z,41.00
2018-09-22T13:39:01.479Z,40.80
2018-09-22T13:41:29.106Z,40.10
2018-09-22T13:43:56.620Z,41.10
2018-09-22T13:46:24.242Z,41.80
2018-09-22T13:48:51.787Z,41.80
2018-09-22T13:51:19.538Z,42.20
2018-09-22T13:53:47.125Z,41.40
2018-09-22T13:56:14.713Z,41.40
2018-09-22T13:58:42.364Z,38.20
2018-09-22T14:01:09.989Z,38.20
2018-09-22T14:03:37.670Z,38.70
2018-09-22T14:06:05.332Z,36.90
2018-09-22T14:08:33.018Z,38.90
2018-09-22T14:11:00.867Z,39.80
2018-09-22T14:13:28.478Z,39.40
2018-09-22T14:15:56.045Z,40.20
2018-09-22T14:18:23.681Z,40.30
2018-09-22T14:20:51.219Z,39.00
2018-09-22T14:23:18.841Z,39.70
2018-09-22T14:25:46.699Z,39.80
2018-09-22T14:28:14.322Z,39.60
2018-09-22T14:30:41.813Z,41.10
2018-09-22T14:33:09.413Z,40.20
2018-09-22T14:35:36.965Z,40.00
2018-09-22T14:38:04.586Z,40.20
2018-09-22T14:40:32.151Z,40.40
2018-09-22T14:42:59.685Z,40.20
2018-09-22T14:45:27.260Z,39.70
2018-09-22T14:47:54.887Z,39.40
2018-09-22T14:50:22.524Z,39.00
2018-09-22T14:52:50.046Z,39.40
2018-09-22T14:55:17.698Z,39.60
2018-09-22T14:57:45.292Z,40.40
2018-09-22T15:00:12.977Z,40.70
2018-09-22T15:02:40.521Z,40.30
2018-09-22T15:05:08.270Z,39.90
2018-09-22T15:07:35.826Z,41.30
2018-09-22T15:10:03.540Z,41.80
2018-09-22T15:12:31.090Z,41.50
2018-09-22T15:14:58.721Z,40.40
2018-09-22T15:19:53.747Z,41.40
2018-09-22T15:22:21.243Z,42.70
2018-09-22T15:24:48.958Z,41.80
2018-09-22T15:27:16.564Z,42.00
2018-09-22T15:29:46.648Z,41.80
2018-09-22T15:32:14.173Z,42.10
2018-09-22T15:34:41.759Z,42.50
2018-09-22T15:37:09.440Z,42.40
2018-09-22T15:39:37.054Z,43.20
2018-09-22T15:42:04.572Z,42.80
2018-09-22T15:44:32.134Z,43.90
2018-09-22T15:46:59.730Z,43.80
2018-09-22T15:49:27.319Z,43.80
2018-09-22T15:51:54.920Z,44.40
2018-09-22T15:56:50.035Z,74.70
2018-09-22T16:01:45.063Z,67.40
2018-09-22T16:04:12.677Z,61.80
2018-09-22T16:06:40.254Z,63.00
2018-09-22T16:09:08.677Z,62.90
2018-09-22T16:11:36.326Z,63.20
2018-09-22T16:14:03.890Z,61.70
2018-09-22T16:16:32.113Z,62.60
2018-09-22T16:18:59.712Z,61.90
2018-09-22T16:21:27.239Z,63.80
2018-09-22T16:23:54.849Z,63.70
2018-09-22T16:26:22.414Z,66.20
2018-09-22T16:28:49.930Z,63.60
2018-09-22T16:31:17.535Z,64.30
2018-09-22T16:33:45.038Z,62.70
2018-09-22T16:36:12.631Z,62.10
2018-09-22T16:38:40.397Z,63.20
2018-09-22T16:41:08.048Z,63.90
2018-09-22T16:43:35.563Z,63.20
2018-09-22T16:46:03.242Z,63.30
2018-09-22T16:48:30.775Z,60.70
2018-09-22T16:50:58.481Z,61.60
2018-09-22T16:53:26.116Z,60.60
2018-09-22T16:55:53.754Z,60.60
2018-09-22T16:58:21.357Z,61.40
2018-09-22T17:00:49.045Z,62.30
2018-09-22T17:03:24.372Z,61.40
2018-09-22T17:05:52.064Z,61.20
2018-09-22T17:08:19.554Z,61.20
2018-09-22T17:10:47.228Z,61.80
2018-09-22T17:13:14.789Z,61.80
2018-09-22T17:15:42.358Z,61.00
2018-09-22T17:18:10.067Z,62.70
2018-09-22T17:20:37.688Z,63.00
2018-09-22T17:23:05.250Z,63.80
2018-09-22T17:25:32.759Z,63.40
2018-09-22T17:28:00.324Z,63.00
2018-09-22T17:30:27.962Z,62.40
2018-09-22T17:32:55.506Z,62.30
2018-09-22T17:35:23.705Z,62.50
2018-09-22T17:37:51.329Z,62.30
2018-09-22T18:05:07.831Z,61.60
2018-09-22T18:07:48.722Z,63.00
2018-09-22T18:10:33.551Z,64.10
2018-09-22T18:21:58.757Z,64.80
2018-09-22T18:24:48.408Z,66.30
2018-09-22T18:27:30.477Z,66.20
2018-09-22T18:30:00.165Z,67.40
2018-09-22T18:32:27.717Z,72.40
2018-09-22T18:35:01.066Z,74.40
2018-09-22T18:41:18.937Z,79.50
2018-09-22T18:43:49.691Z,81.70
2018-09-22T18:46:24.086Z,53.20
2018-09-22T18:49:19.130Z,53.60
2018-09-22T18:51:51.331Z,53.10
2018-09-22T18:54:22.971Z,53.20
2018-09-22T18:56:55.426Z,53.60
2018-09-22T18:59:25.696Z,53.50
2018-09-22T19:09:13.556Z,51.60
2018-09-22T19:11:46.503Z,51.60
2018-09-22T19:14:36.403Z,52.00
2018-09-22T19:18:19.305Z,52.00
2018-09-22T19:21:50.095Z,52.90
2018-09-22T19:24:30.541Z,52.20
2018-09-22T19:27:12.358Z,52.60
2018-09-22T19:29:49.153Z,52.50
2018-09-22T19:32:27.445Z,53.00
2018-09-22T19:35:04.723Z,53.50
2018-09-22T19:37:44.052Z,53.00
2018-09-22T19:45:00.933Z,53.50
2018-09-22T19:47:36.620Z,53.20
2018-09-22T19:50:09.751Z,52.90
2018-09-22T19:52:45.904Z,53.40
2018-09-22T19:55:13.570Z,53.80
2018-09-22T19:57:44.698Z,54.10
2018-09-22T20:00:12.257Z,54.10
2018-09-22T20:02:40.289Z,54.30
2018-09-22T20:05:08.034Z,54.70
2018-09-22T20:07:35.765Z,54.50
2018-09-22T20:10:03.574Z,54.50
2018-09-22T20:12:31.197Z,55.30
2018-09-22T20:14:58.798Z,55.50
2018-09-22T20:17:26.469Z,55.20
2018-09-22T20:19:54.462Z,55.70
2018-09-22T20:22:22.155Z,55.60
2018-09-22T20:24:49.761Z,55.60
2018-09-22T20:27:17.294Z,55.70
2018-09-22T20:29:44.919Z,55.80
2018-09-22T20:32:12.470Z,55.70
2018-09-22T20:34:40.280Z,55.90
2018-09-22T20:37:07.907Z,56.30
2018-09-22T20:39:35.494Z,56.40
2018-09-22T20:42:03.151Z,56.80
2018-09-22T20:44:30.829Z,56.80
2018-09-22T20:46:58.406Z,57.50
2018-09-22T20:49:26.005Z,57.60
2018-09-22T20:51:53.574Z,57.50
2018-09-22T20:54:21.238Z,57.00
2018-09-22T20:56:48.918Z,57.00
2018-09-22T20:59:16.480Z,57.00
2018-09-22T21:01:44.034Z,57.50
2018-09-22T21:04:11.681Z,57.90
2018-09-22T21:06:39.310Z,58.00
2018-09-22T21:09:07.651Z,58.10
2018-09-22T21:11:35.295Z,58.80
2018-09-22T21:14:02.897Z,59.70
2018-09-22T21:16:30.459Z,59.40
2018-09-22T21:18:58.087Z,59.50
2018-09-22T21:21:25.705Z,59.50
2018-09-22T21:23:53.323Z,59.80
2018-09-22T21:26:21.085Z,59.90
2018-09-22T21:28:48.627Z,60.10
2018-09-22T21:31:16.287Z,60.90
2018-09-22T21:33:43.831Z,60.70
2018-09-22T21:36:11.445Z,60.30
2018-09-22T21:38:39.001Z,60.50
2018-09-22T21:41:06.568Z,60.80
2018-09-22T21:43:34.130Z,61.20
2018-09-22T21:46:01.743Z,61.20
2018-09-22T21:48:29.237Z,62.10
2018-09-22T21:50:56.951Z,62.70
2018-09-22T21:53:24.650Z,63.50
2018-09-22T21:55:52.272Z,62.20
2018-09-22T21:58:19.753Z,61.60
2018-09-22T22:00:52.309Z,62.10
2018-09-22T22:03:20.841Z,62.50
2018-09-22T22:05:48.486Z,62.80
2018-09-22T22:08:16.258Z,62.90
2018-09-22T22:10:44.295Z,63.00
2018-09-22T22:13:11.950Z,63.50
2018-09-22T22:15:39.799Z,64.10
2018-09-22T22:18:07.512Z,64.40
2018-09-22T22:20:35.331Z,64.70
2018-09-22T22:23:02.956Z,66.00
2018-09-22T22:25:30.488Z,65.40
2018-09-22T22:27:58.086Z,65.70
2018-09-22T22:30:25.581Z,66.10
2018-09-22T22:32:53.179Z,68.00
2018-09-22T22:35:20.734Z,67.00
2018-09-22T22:37:48.314Z,66.70
2018-09-22T22:40:15.814Z,67.30
2018-09-22T22:42:43.423Z,66.60
2018-09-22T22:45:10.951Z,67.40
2018-09-22T22:47:38.523Z,67.40
2018-09-22T22:50:06.151Z,67.40
2018-09-22T22:52:33.816Z,67.40
2018-09-22T22:55:01.376Z,68.90
2018-09-22T22:57:28.971Z,68.40
2018-09-22T22:59:56.573Z,67.80
2018-09-22T23:02:24.087Z,68.00
2018-09-22T23:04:51.932Z,68.10
2018-09-22T23:07:19.671Z,68.40
2018-09-22T23:09:47.176Z,68.30
2018-09-22T23:12:14.764Z,68.20
2018-09-22T23:14:42.343Z,68.00
2018-09-22T23:17:09.862Z,67.30
2018-09-22T23:19:37.462Z,66.80
2018-09-22T23:22:05.023Z,67.30
2018-09-22T23:24:32.622Z,67.60
2018-09-22T23:27:00.203Z,67.40
2018-09-22T23:29:27.730Z,68.20
2018-09-22T23:31:55.231Z,68.20
2018-09-22T23:34:22.790Z,66.70
2018-09-22T23:36:50.308Z,66.80
2018-09-22T23:39:17.874Z,67.30
2018-09-22T23:41:45.361Z,66.90
2018-09-22T23:44:12.961Z,67.40
2018-09-22T23:46:40.525Z,66.80
2018-09-22T23:49:08.444Z,66.60
2018-09-22T23:51:35.929Z,66.90
2018-09-22T23:54:03.502Z,66.40
2018-09-22T23:56:30.970Z,66.10
2018-09-22T23:58:58.434Z,66.10
